KLNA/LNA METAR and TAF weather

Enter ICAO airport designator
Station Type Date Time Source
KLNA METAR 2020/08/15 10:35 UTC NOAA

KLNA 151035Z AUTO 00000KT 26/25 A2996 RMK AO2 T02620251 PWINO PNO


Station Type Date Time Source
KLNA Decoded METAR 2020/08/15 10:35 UTC NOAA

Station name not available
Aug 15, 2020 - 06:35 AM EDT / 2020.08.15 1035 UTC
Wind: Calm:0
Temperature: 79.2 F (26.2 C)
Dew Point: 77.2 F (25.1 C)
Relative Humidity: 93%
Pressure (altimeter): 29.96 in. Hg (1014 hPa)
ob: KLNA 151035Z AUTO 00000KT 26/25 A2996 RMK AO2 T02620251 PWINO PNO
cycle: 10

Station Type Date Time Source
KLNA TAF UTC NOAA

Error!

Example: see airport list